Time;durP1;ratioP1;P1;durP2;ratioP2;P2;SDS_P1;SDS_P2;PMS_P1;PMS_P2;Temp;Humidity;BMP_temperature;BMP_pressure;BME280_temperature;BME280_humidity;BME280_pressure;Samples;Min_cycle;Max_cycle;Signal;HPM_P1;HPM_P2
2022/11/14 00:02:06;;;;;;;33.65;18.48;;;6.60;99.90;;;;;;5105311;28;20453;-59
2022/11/14 00:04:32;;;;;;;37.72;19.33;;;;;;;;;;5090746;28;20039;-59
2022/11/14 00:06:58;;;;;;;32.17;18.20;;;;;;;;;;5086207;28;20512;-59
2022/11/14 00:09:28;;;;;;;35.65;18.90;;;;;;;;;;5110011;28;20036;-59
2022/11/14 00:11:54;;;;;;;32.38;17.23;;;;;;;;;;5084390;28;20134;-59
2022/11/14 00:14:20;;;;;;;36.00;19.67;;;6.70;99.90;;;;;;5110424;28;20038;-59
2022/11/14 00:16:46;;;;;;;34.42;17.63;;;6.70;99.90;;;;;;5105038;28;20035;-59
2022/11/14 00:19:12;;;;;;;35.22;18.60;;;6.80;99.90;;;;;;5104585;28;20028;-60
2022/11/14 00:21:38;;;;;;;34.03;17.35;;;;;;;;;;5107900;28;20051;-59
2022/11/14 00:24:04;;;;;;;33.20;18.02;;;;;;;;;;5104808;28;20054;-60
2022/11/14 00:26:30;;;;;;;36.13;18.05;;;;;;;;;;5108284;28;20050;-59
2022/11/14 00:28:56;;;;;;;38.78;19.33;;;;;;;;;;5105258;28;20487;-59
2022/11/14 00:31:22;;;;;;;31.98;17.85;;;;;;;;;;5109351;28;20028;-59
2022/11/14 00:33:48;;;;;;;34.30;18.38;;;6.80;99.90;;;;;;5104564;28;20086;-59
2022/11/14 00:36:14;;;;;;;34.25;17.80;;;;;;;;;;5105000;28;20067;-59
2022/11/14 00:38:40;;;;;;;32.25;17.25;;;;;;;;;;5106092;28;20039;-59
2022/11/14 00:41:05;;;;;;;34.45;17.52;;;6.90;99.90;;;;;;5103156;28;20408;-59
2022/11/14 00:43:31;;;;;;;33.28;18.17;;;;;;;;;;5108558;28;20043;-59
2022/11/14 00:45:57;;;;;;;34.05;17.67;;;;;;;;;;5080818;28;20053;-59
2022/11/14 00:48:23;;;;;;;36.95;18.33;;;;;;;;;;5106177;28;20175;-59
2022/11/14 00:50:49;;;;;;;35.63;17.63;;;;;;;;;;5101187;28;20031;-59
2022/11/14 00:53:15;;;;;;;32.13;17.17;;;7.20;99.90;;;;;;5099815;28;20042;-59
2022/11/14 00:55:42;;;;;;;37.30;18.08;;;;;;;;;;5087939;28;20047;-59
2022/11/14 00:58:08;;;;;;;33.63;19.13;;;;;;;;;;5097249;28;20044;-59
2022/11/14 01:00:35;;;;;;;31.92;17.38;;;;;;;;;;5072908;28;20397;-59
2022/11/14 01:03:01;;;;;;;36.45;18.95;;;;;;;;;;5106269;28;20520;-58
2022/11/14 01:05:27;;;;;;;33.03;17.35;;;;;;;;;;5101510;28;20076;-59
2022/11/14 01:07:53;;;;;;;34.75;17.02;;;;;;;;;;5110035;28;20462;-59
2022/11/14 01:10:19;;;;;;;33.63;17.35;;;;;;;;;;5083750;28;20042;-59
2022/11/14 01:12:45;;;;;;;29.85;16.88;;;6.90;99.90;;;;;;5092208;28;20123;-59
2022/11/14 01:15:11;;;;;;;31.35;17.88;;;;;;;;;;5105245;28;20120;-59
2022/11/14 01:17:37;;;;;;;27.83;16.42;;;;;;;;;;5101117;28;20564;-59
2022/11/14 01:20:04;;;;;;;32.10;17.98;;;;;;;;;;5105866;28;20042;-59
2022/11/14 01:22:30;;;;;;;33.60;17.77;;;;;;;;;;5100622;28;20080;-59
2022/11/14 01:24:59;;;;;;;30.30;16.50;;;;;;;;;;5110901;28;20039;-59
2022/11/14 01:27:25;;;;;;;34.90;18.50;;;;;;;;;;5097298;28;20120;-59
2022/11/14 01:29:51;;;;;;;28.83;16.75;;;;;;;;;;5111101;28;20038;-59
2022/11/14 01:32:17;;;;;;;31.10;16.73;;;7.20;99.90;;;;;;5103765;28;20043;-59
2022/11/14 01:34:43;;;;;;;29.45;16.95;;;;;;;;;;5083982;28;20040;-59
2022/11/14 01:37:09;;;;;;;28.30;17.08;;;;;;;;;;5105509;28;20088;-59
2022/11/14 01:39:35;;;;;;;26.15;15.35;;;;;;;;;;5100959;28;20400;-59
2022/11/14 01:42:01;;;;;;;29.83;17.65;;;;;;;;;;5109039;28;20036;-59
2022/11/14 01:44:45;;;;;;;31.45;17.30;;;;;;;;;;5083127;28;20096;-59
2022/11/14 01:47:15;;;;;;;27.65;17.10;;;;;;;;;;5104317;28;20035;-59
2022/11/14 01:49:43;;;;;;;31.70;17.45;;;;;;;;;;5103736;28;20039;-59
2022/11/14 01:52:23;;;;;;;27.77;16.58;;;7.60;99.90;;;;;;5103051;28;20373;-59
2022/11/14 01:54:54;;;;;;;28.15;16.05;;;7.20;99.90;;;;;;5100673;28;20065;-59
2022/11/14 01:57:23;;;;;;;29.63;16.48;;;;;;;;;;5103111;28;20083;-59
2022/11/14 01:59:51;;;;;;;31.30;17.20;;;;;;;;;;5083967;28;20126;-59
2022/11/14 02:02:20;;;;;;;30.58;17.38;;;7.10;99.90;;;;;;5103641;28;20039;-59
2022/11/14 02:04:50;;;;;;;28.92;16.70;;;6.90;99.90;;;;;;5104577;28;20031;-58
2022/11/14 02:07:17;;;;;;;30.67;15.75;;;7.40;99.90;;;;;;5104205;28;20035;-58
2022/11/14 02:09:46;;;;;;;29.65;16.85;;;7.70;99.90;;;;;;5102902;28;20041;-59
2022/11/14 02:12:13;;;;;;;33.20;18.30;;;;;;;;;;5099227;28;20149;-59
2022/11/14 02:14:40;;;;;;;29.08;16.60;;;;;;;;;;5102408;28;20401;-59
2022/11/14 02:17:06;;;;;;;30.17;17.42;;;;;;;;;;5105709;28;20344;-59
2022/11/14 02:19:49;;;;;;;28.05;16.20;;;7.20;99.90;;;;;;5103662;28;20442;-58
2022/11/14 02:22:15;;;;;;;29.75;18.00;;;7.50;99.90;;;;;;5104424;28;20028;-58
2022/11/14 02:24:42;;;;;;;29.77;18.08;;;7.00;99.90;;;;;;5101537;28;20043;-59
2022/11/14 02:27:09;;;;;;;36.28;19.42;;;;;;;;;;5106334;28;20152;-59
2022/11/14 02:29:36;;;;;;;34.42;18.95;;;7.60;99.90;;;;;;5102087;28;20032;-57
2022/11/14 02:32:02;;;;;;;30.52;17.48;;;7.50;99.90;;;;;;5110308;28;20451;-59
2022/11/14 02:34:28;;;;;;;27.33;17.50;;;7.30;99.90;;;;;;5101739;28;20032;-59
2022/11/14 02:36:54;;;;;;;28.48;17.52;;;7.40;99.90;;;;;;5102162;28;20044;-59
2022/11/14 02:39:20;;;;;;;31.85;17.58;;;;;;;;;;5104086;28;20105;-59
2022/11/14 02:41:46;;;;;;;31.77;17.55;;;;;;;;;;5102017;28;20036;-59
2022/11/14 02:44:12;;;;;;;32.55;17.85;;;;;;;;;;5106912;28;20396;-59
2022/11/14 02:46:38;;;;;;;31.52;19.13;;;;;;;;;;5102219;28;20042;-58
2022/11/14 02:49:04;;;;;;;30.23;19.60;;;;;;;;;;5110021;28;20123;-59
2022/11/14 02:51:30;;;;;;;33.22;19.20;;;;;;;;;;5102226;28;20028;-59
2022/11/14 02:53:56;;;;;;;32.30;18.33;;;;;;;;;;5102653;28;20039;-58
2022/11/14 02:56:22;;;;;;;32.78;20.20;;;7.30;99.90;;;;;;5104684;28;20401;-58
2022/11/14 02:58:47;;;;;;;33.38;20.60;;;7.40;99.90;;;;;;5102436;28;20050;-59
2022/11/14 03:01:14;;;;;;;34.78;21.45;;;7.30;99.90;;;;;;5107684;28;20067;-59
2022/11/14 03:03:40;;;;;;;36.10;21.15;;;7.20;99.90;;;;;;5102516;28;20468;-59
2022/11/14 03:06:06;;;;;;;35.25;20.73;;;;;;;;;;5110362;28;20534;-59
2022/11/14 03:08:32;;;;;;;38.85;21.10;;;;;;;;;;5101486;28;20036;-59
2022/11/14 03:11:05;;;;;;;35.33;22.67;;;;;;;;;;5102602;28;20082;-59
2022/11/14 03:13:31;;;;;;;42.92;22.95;;;7.40;99.90;;;;;;5104334;28;20071;-59
2022/11/14 03:15:56;;;;;;;41.88;23.92;;;7.30;99.90;;;;;;5103575;28;20090;-59
2022/11/14 03:18:22;;;;;;;42.55;23.95;;;;;;;;;;5105991;28;20043;-59
2022/11/14 03:20:49;;;;;;;41.38;23.15;;;;;;;;;;5104579;28;20069;-59
2022/11/14 03:23:15;;;;;;;39.67;23.75;;;;;;;;;;5102659;28;20071;-59
2022/11/14 03:25:41;;;;;;;43.28;24.08;;;;;;;;;;5104029;28;20094;-59
2022/11/14 03:28:07;;;;;;;41.60;23.40;;;;;;;;;;5103168;28;20176;-59
2022/11/14 03:30:32;;;;;;;43.50;24.65;;;7.20;99.90;;;;;;5105359;28;20562;-59
2022/11/14 03:32:58;;;;;;;44.47;24.77;;;;;;;;;;5104778;28;20031;-59
2022/11/14 03:35:24;;;;;;;40.53;22.85;;;;;;;;;;5081666;28;20055;-59
2022/11/14 03:37:50;;;;;;;41.50;22.70;;;;;;;;;;5103919;28;20028;-59
2022/11/14 03:40:16;;;;;;;44.72;25.80;;;;;;;;;;5102360;28;20565;-59
2022/11/14 03:42:42;;;;;;;45.47;24.65;;;7.10;99.90;;;;;;5102211;28;20040;-59
2022/11/14 03:45:09;;;;;;;42.92;26.02;;;6.90;99.90;;;;;;5103732;28;20389;-59
2022/11/14 03:47:34;;;;;;;44.75;25.50;;;7.00;99.90;;;;;;5104995;28;20036;-59
2022/11/14 03:50:00;;;;;;;43.22;25.50;;;;;;;;;;5104103;28;20032;-59
2022/11/14 03:52:26;;;;;;;50.78;27.98;;;;;;;;;;5098915;28;20058;-60
2022/11/14 03:54:52;;;;;;;46.90;26.90;;;;;;;;;;5104651;28;20467;-59
2022/11/14 03:57:19;;;;;;;49.65;27.92;;;;;;;;;;5101508;28;20071;-59
2022/11/14 03:59:45;;;;;;;49.25;28.60;;;;;;;;;;5104393;28;20512;-59
2022/11/14 04:02:10;;;;;;;51.17;29.25;;;7.20;99.90;;;;;;5098428;28;20409;-59
2022/11/14 04:04:36;;;;;;;49.78;29.23;;;7.30;99.90;;;;;;5106973;28;20028;-58
2022/11/14 04:07:02;;;;;;;48.78;28.73;;;;;;;;;;5106919;28;20032;-59
2022/11/14 04:09:28;;;;;;;47.00;27.55;;;;;;;;;;5102154;28;20096;-59
2022/11/14 04:11:54;;;;;;;47.33;27.15;;;;;;;;;;5074087;28;20405;-59
2022/11/14 04:14:20;;;;;;;54.10;28.77;;;;;;;;;;5105245;28;20035;-59
2022/11/14 04:16:46;;;;;;;50.88;27.60;;;;;;;;;;5107420;28;20047;-58
2022/11/14 04:19:12;;;;;;;50.33;29.15;;;;;;;;;;5106313;28;20039;-59
2022/11/14 04:21:38;;;;;;;47.25;27.83;;;;;;;;;;5107326;28;20433;-59
2022/11/14 04:24:04;;;;;;;46.70;27.45;;;7.30;99.90;;;;;;5104317;28;20489;-58
2022/11/14 04:26:30;;;;;;;56.97;29.95;;;;;;;;;;5108980;28;20350;-57
2022/11/14 04:28:56;;;;;;;49.97;29.85;;;7.40;99.90;;;;;;5087083;28;20114;-59
2022/11/14 04:31:22;;;;;;;51.45;28.83;;;;;;;;;;5110021;28;20123;-59
2022/11/14 04:33:47;;;;;;;54.03;29.15;;;7.30;99.90;;;;;;5104135;28;20123;-59
2022/11/14 04:36:13;;;;;;;52.45;29.42;;;;;;;;;;5104859;28;20027;-58
2022/11/14 04:38:40;;;;;;;58.33;32.63;;;;;;;;;;5088448;28;20043;-58
2022/11/14 04:41:05;;;;;;;50.65;30.42;;;7.20;99.90;;;;;;5104819;28;20046;-59
2022/11/14 04:43:31;;;;;;;47.03;27.02;;;7.30;99.90;;;;;;5090448;28;20342;-59
2022/11/14 04:45:56;;;;;;;54.80;30.33;;;7.20;99.90;;;;;;5105343;28;20061;-59
2022/11/14 04:48:22;;;;;;;52.20;28.98;;;;;;;;;;5109182;28;20405;-58
2022/11/14 04:50:48;;;;;;;50.80;29.65;;;;;;;;;;5104035;28;20046;-59
2022/11/14 04:53:14;;;;;;;50.63;28.48;;;;;;;;;;5105029;28;20032;-58
2022/11/14 04:55:42;;;;;;;48.45;28.88;;;7.20;99.90;;;;;;5106745;28;20473;-59
2022/11/14 04:58:08;;;;;;;52.58;28.80;;;7.20;99.90;;;;;;5104556;28;20039;-59
2022/11/14 05:00:34;;;;;;;51.85;30.02;;;;;;;;;;5108629;28;20556;-59
2022/11/14 05:03:00;;;;;;;49.92;27.98;;;;;;;;;;5105225;28;20059;-59
2022/11/14 05:05:26;;;;;;;51.22;28.92;;;;;;;;;;5108741;28;20035;-59
2022/11/14 05:07:53;;;;;;;53.22;30.35;;;;;;;;;;5102303;28;20043;-59
2022/11/14 05:10:19;;;;;;;52.15;31.13;;;7.10;99.90;;;;;;5087177;28;20031;-58
2022/11/14 05:12:45;;;;;;;51.40;29.45;;;;;;;;;;5105720;28;20039;-58
2022/11/14 05:15:10;;;;;;;49.30;29.48;;;6.90;99.90;;;;;;5104750;28;20035;-58
2022/11/14 05:17:37;;;;;;;49.92;28.42;;;;;;;;;;5106711;28;20114;-59
2022/11/14 05:20:03;;;;;;;51.17;28.13;;;;;;;;;;5103581;28;20288;-58
2022/11/14 05:22:29;;;;;;;50.90;28.48;;;;;;;;;;5083089;28;20611;-59
2022/11/14 05:24:55;;;;;;;51.90;30.00;;;;;;;;;;5110508;28;20046;-59
2022/11/14 05:27:20;;;;;;;50.75;28.48;;;7.10;99.90;;;;;;5100789;28;20493;-59
2022/11/14 05:29:46;;;;;;;50.03;28.98;;;7.00;99.90;;;;;;5102376;28;20093;-59
2022/11/14 05:32:12;;;;;;;52.60;30.27;;;;;;;;;;5102540;28;20028;-59
2022/11/14 05:34:38;;;;;;;53.47;29.75;;;;;;;;;;5098969;28;20040;-59
2022/11/14 05:37:04;;;;;;;51.00;29.95;;;;;;;;;;5106644;28;20032;-59
2022/11/14 05:39:30;;;;;;;50.17;27.27;;;;;;;;;;5101139;28;20064;-60
2022/11/14 05:41:56;;;;;;;45.53;25.92;;;;;;;;;;5110142;28;20036;-60
2022/11/14 05:44:22;;;;;;;52.50;27.88;;;;;;;;;;5101366;28;20170;-59
2022/11/14 05:46:48;;;;;;;50.08;28.15;;;;;;;;;;5100780;28;20052;-59
2022/11/14 05:49:14;;;;;;;50.20;29.08;;;;;;;;;;5094478;28;20032;-59
2022/11/14 05:51:40;;;;;;;47.80;29.17;;;;;;;;;;5079793;28;20402;-60
2022/11/14 05:54:06;;;;;;;49.75;28.45;;;;;;;;;;5080570;28;20028;-60
2022/11/14 05:56:32;;;;;;;53.72;29.05;;;;;;;;;;5055299;28;20032;-59
2022/11/14 05:58:58;;;;;;;48.10;28.23;;;;;;;;;;5077461;28;20119;-59
2022/11/14 06:01:24;;;;;;;49.47;27.65;;;7.00;99.90;;;;;;5082175;28;20489;-59
2022/11/14 06:03:50;;;;;;;51.70;29.23;;;;;;;;;;5059927;28;20042;-59
2022/11/14 06:06:18;;;;;;;50.42;28.38;;;;;;;;;;5076543;28;20033;-59
2022/11/14 06:08:44;;;;;;;49.17;27.80;;;;;;;;;;5074966;28;20129;-60
2022/11/14 06:11:11;;;;;;;48.92;28.88;;;;;;;;;;5079150;28;20032;-58
2022/11/14 06:13:38;;;;;;;50.53;29.48;;;;;;;;;;5085906;28;20078;-60
2022/11/14 06:16:06;;;;;;;50.58;27.83;;;7.10;99.90;;;;;;5078456;28;20048;-60
2022/11/14 06:18:33;;;;;;;47.03;29.40;;;;;;;;;;5069603;28;20043;-60
2022/11/14 06:21:03;;;;;;;52.83;30.27;;;;;;;;;;5056373;28;20042;-59
2022/11/14 06:23:29;;;;;;;54.53;30.35;;;;;;;;;;5072401;28;20052;-60
2022/11/14 06:26:00;;;;;;;49.85;28.25;;;6.50;99.90;;;;;;5072211;28;20070;-59
2022/11/14 06:28:26;;;;;;;53.53;29.88;;;;;;;;;;5092046;28;20031;-59
2022/11/14 06:30:56;;;;;;;52.58;29.45;;;;;;;;;;5102710;28;20039;-59
2022/11/14 06:33:22;;;;;;;54.75;29.83;;;;;;;;;;5099018;28;20040;-58
2022/11/14 06:35:48;;;;;;;53.55;29.80;;;;;;;;;;5094108;28;20039;-57
2022/11/14 06:38:14;;;;;;;54.47;30.35;;;;;;;;;;5103153;28;20058;-59
2022/11/14 06:40:40;;;;;;;54.08;29.02;;;;;;;;;;5095276;28;20040;-60
2022/11/14 06:43:06;;;;;;;47.55;26.88;;;6.90;99.90;;;;;;5102128;28;20085;-60
2022/11/14 06:45:31;;;;;;;50.13;30.02;;;6.80;99.90;;;;;;5073193;28;20032;-60
2022/11/14 06:47:58;;;;;;;49.17;28.23;;;6.90;99.90;;;;;;5082128;28;20031;-59
2022/11/14 06:50:25;;;;;;;50.78;27.40;;;;;;;;;;5077892;28;20494;-58
2022/11/14 06:52:51;;;;;;;48.42;28.42;;;;;;;;;;5069207;28;20040;-60
2022/11/14 06:55:17;;;;;;;50.08;28.55;;;6.90;99.90;;;;;;5059630;28;20082;-60
2022/11/14 06:57:42;;;;;;;51.47;29.08;;;7.00;99.90;;;;;;5078862;28;20068;-59
2022/11/14 07:00:08;;;;;;;49.83;28.67;;;;;;;;;;5082914;28;20075;-59
2022/11/14 07:02:34;;;;;;;53.40;29.67;;;;;;;;;;5129084;22;20509;-58
2022/11/14 07:05:00;;;;;;;47.40;29.00;;;;;;;;;;5063795;28;20046;-58
2022/11/14 07:07:26;;;;;;;46.72;27.25;;;;;;;;;;5064544;28;20041;-60
2022/11/14 07:09:55;;;;;;;47.95;28.85;;;;;;;;;;5088209;28;20269;-60
2022/11/14 07:12:21;;;;;;;50.70;29.98;;;;;;;;;;5084709;28;20043;-60
2022/11/14 07:14:47;;;;;;;48.78;27.77;;;;;;;;;;5088295;28;20040;-58
2022/11/14 07:17:13;;;;;;;46.92;27.02;;;;;;;;;;5086609;28;20405;-57
2022/11/14 07:19:39;;;;;;;43.78;26.20;;;;;;;;;;5091543;28;20401;-57
2022/11/14 07:22:05;;;;;;;51.22;29.55;;;7.10;99.90;;;;;;5094310;28;20116;-58
2022/11/14 07:24:30;;;;;;;47.50;27.33;;;7.00;99.90;;;;;;5082997;28;20115;-58
2022/11/14 07:26:56;;;;;;;49.17;29.33;;;;;;;;;;5097125;28;20400;-60
2022/11/14 07:29:22;;;;;;;43.70;26.20;;;;;;;;;;5100711;28;20048;-58
2022/11/14 07:31:48;;;;;;;46.08;26.20;;;;;;;;;;5095930;28;20444;-59
2022/11/14 07:34:14;;;;;;;46.97;26.77;;;;;;;;;;5092237;28;20048;-59
2022/11/14 07:36:40;;;;;;;46.85;27.23;;;7.00;99.90;;;;;;5098221;28;20035;-57
2022/11/14 07:39:05;;;;;;;46.28;27.55;;;6.90;99.90;;;;;;5104409;28;20115;-58
2022/11/14 07:41:31;;;;;;;45.70;27.80;;;;;;;;;;5101399;28;20039;-59
2022/11/14 07:43:57;;;;;;;45.92;27.40;;;;;;;;;;5098684;28;20405;-59
2022/11/14 07:46:23;;;;;;;48.45;27.88;;;;;;;;;;5086685;28;20048;-58
2022/11/14 07:48:49;;;;;;;51.03;28.88;;;;;;;;;;5101629;28;20035;-58
2022/11/14 07:51:17;;;;;;;48.20;26.80;;;;;;;;;;5102185;28;20508;-59
2022/11/14 07:53:43;;;;;;;45.92;28.58;;;7.00;99.90;;;;;;5102510;28;20043;-59
2022/11/14 07:56:09;;;;;;;50.13;27.77;;;6.80;99.90;;;;;;5104330;28;20054;-59
2022/11/14 07:58:36;;;;;;;50.80;30.45;;;;;;;;;;5090755;28;20111;-59
2022/11/14 08:01:04;;;;;;;48.75;28.02;;;7.00;99.90;;;;;;5098595;28;20140;-58
2022/11/14 08:03:29;;;;;;;47.55;29.17;;;6.80;99.90;;;;;;5100837;28;20032;-59
2022/11/14 08:06:02;;;;;;;51.88;29.33;;;7.30;99.90;;;;;;5091009;28;20035;-59
2022/11/14 08:08:28;;;;;;;50.95;28.75;;;6.80;99.90;;;;;;5101543;28;20090;-59
2022/11/14 08:10:58;;;;;;;52.80;28.92;;;;;;;;;;5111113;28;20434;-59
2022/11/14 08:13:24;;;;;;;51.28;29.15;;;;;;;;;;5095483;28;20115;-59
2022/11/14 08:15:50;;;;;;;46.47;28.55;;;;;;;;;;5083325;28;20046;-59
2022/11/14 08:18:16;;;;;;;51.05;29.58;;;7.00;99.90;;;;;;5085774;28;20050;-59
2022/11/14 08:20:42;;;;;;;50.30;28.83;;;;;;;;;;5072695;28;20048;-59
2022/11/14 08:23:09;;;;;;;51.60;28.08;;;7.00;99.90;;;;;;5099635;28;20499;-58
2022/11/14 08:25:35;;;;;;;54.72;30.48;;;7.10;99.90;;;;;;5082138;28;20131;-56
2022/11/14 08:28:01;;;;;;;45.60;27.40;;;;;;;;;;5092175;28;20106;-59
2022/11/14 08:30:27;;;;;;;54.60;29.23;;;;;;;;;;5087249;28;20043;-56
2022/11/14 08:32:53;;;;;;;51.92;29.25;;;;;;;;;;5096516;28;20036;-59
2022/11/14 08:35:19;;;;;;;52.67;30.60;;;;;;;;;;5092498;28;20036;-57
2022/11/14 08:37:44;;;;;;;49.88;29.25;;;7.30;99.90;;;;;;5079476;28;20127;-59
2022/11/14 08:40:11;;;;;;;48.58;28.33;;;;;;;;;;5105804;28;20114;-58
2022/11/14 08:42:37;;;;;;;48.97;27.67;;;;;;;;;;5096285;28;20040;-59
2022/11/14 08:45:04;;;;;;;46.47;27.67;;;;;;;;;;5079590;28;20410;-59
2022/11/14 08:47:30;;;;;;;50.88;28.60;;;;;;;;;;5058102;28;20074;-59
2022/11/14 08:49:56;;;;;;;49.92;28.92;;;;;;;;;;5086009;28;20524;-59
2022/11/14 08:52:21;;;;;;;46.03;27.20;;;7.40;99.90;;;;;;5102707;28;20032;-59
2022/11/14 08:54:47;;;;;;;51.55;28.55;;;7.40;99.90;;;;;;5103021;28;20035;-58
2022/11/14 08:57:14;;;;;;;52.40;30.13;;;;;;;;;;5103029;28;20038;-58
2022/11/14 08:59:43;;;;;;;56.70;29.35;;;;;;;;;;5104256;28;20031;-59
2022/11/14 09:02:10;;;;;;;51.30;28.75;;;8.00;99.90;;;;;;5082931;28;20039;-59
2022/11/14 09:04:36;;;;;;;46.08;28.70;;;7.30;99.90;;;;;;5098875;28;20039;-59
2022/11/14 09:07:02;;;;;;;46.42;26.77;;;;;;;;;;5095992;28;20123;-59
2022/11/14 09:09:28;;;;;;;56.63;30.27;;;;;;;;;;5095853;28;20031;-58
2022/11/14 09:11:54;;;;;;;54.50;29.20;;;;;;;;;;5092823;28;20619;-59
2022/11/14 09:14:20;;;;;;;51.65;29.50;;;;;;;;;;5093168;28;20223;-61
2022/11/14 09:16:49;;;;;;;49.22;27.65;;;;;;;;;;5086439;28;20040;-59
2022/11/14 09:19:15;;;;;;;51.80;28.38;;;;;;;;;;5087493;28;20041;-59
2022/11/14 09:21:41;;;;;;;50.70;28.83;;;;;;;;;;5081622;28;20039;-58
2022/11/14 09:24:07;;;;;;;49.72;29.45;;;;;;;;;;5076699;28;20617;-58
2022/11/14 09:26:33;;;;;;;48.72;27.77;;;;;;;;;;5075982;28;20040;-57
2022/11/14 09:29:00;;;;;;;45.58;26.63;;;;;;;;;;5080039;28;20028;-58
2022/11/14 09:31:27;;;;;;;48.30;28.50;;;;;;;;;;5062484;28;20049;-59
2022/11/14 09:33:53;;;;;;;50.08;28.33;;;;;;;;;;5077151;28;20101;-58
2022/11/14 09:36:18;;;;;;;48.13;28.33;;;7.70;99.90;;;;;;5084773;28;20548;-59
2022/11/14 09:38:44;;;;;;;50.95;27.65;;;7.90;99.90;;;;;;5076388;28;20081;-58
2022/11/14 09:41:13;;;;;;;47.00;27.10;;;;;;;;;;5098883;28;20123;-58
2022/11/14 09:43:58;;;;;;;45.97;26.83;;;;;;;;;;5100861;28;20393;-58
2022/11/14 09:46:37;;;;;;;48.63;27.75;;;7.00;99.90;;;;;;5086198;28;20044;-58
2022/11/14 09:49:08;;;;;;;48.65;28.25;;;;;;;;;;5069733;28;20479;-59
2022/11/14 09:51:44;;;;;;;51.28;28.63;;;8.30;99.90;;;;;;5089129;28;20870;-59
2022/11/14 09:54:20;;;;;;;49.65;28.42;;;;;;;;;;5100591;28;20396;-58
2022/11/14 09:56:46;;;;;;;47.70;28.90;;;;;;;;;;5095694;28;20043;-58
2022/11/14 09:59:12;;;;;;;51.88;28.55;;;;;;;;;;5095170;28;20040;-59
2022/11/14 10:01:41;;;;;;;45.60;25.48;;;;;;;;;;5073805;28;20092;-58
2022/11/14 10:04:16;;;;;;;43.88;25.42;;;7.30;99.90;;;;;;5096283;28;20044;-59
2022/11/14 10:06:42;;;;;;;48.13;26.67;;;;;;;;;;5091463;28;20559;-58
2022/11/14 10:09:42;;;;;;;47.35;27.50;;;8.50;99.90;;;;;;5099356;28;20044;-59
2022/11/14 10:12:18;;;;;;;41.13;24.92;;;;;;;;;;5088682;28;20032;-59
2022/11/14 10:15:06;;;;;;;45.22;24.90;;;7.90;99.90;;;;;;5098824;28;20040;-58
2022/11/14 10:17:40;;;;;;;42.85;26.60;;;;;;;;;;5101804;28;20036;-57
2022/11/14 10:20:47;;;;;;;41.65;25.52;;;7.40;99.90;;;;;;5103018;28;20401;-59
2022/11/14 10:23:21;;;;;;;38.47;24.02;;;;;;;;;;5026431;28;20070;-57
2022/11/14 10:26:06;;;;;;;43.60;24.90;;;7.40;99.90;;;;;;5087708;28;20048;-59
2022/11/14 10:28:48;;;;;;;39.85;24.40;;;;;;;;;;5083446;28;20034;-58
2022/11/14 10:31:33;;;;;;;41.58;24.40;;;;;;;;;;5085366;28;20032;-58
2022/11/14 10:34:21;;;;;;;43.30;25.05;;;8.60;99.90;;;;;;5085017;28;20046;-58
2022/11/14 10:37:17;;;;;;;41.00;25.20;;;8.50;99.90;;;;;;5079352;28;20071;-58
2022/11/14 10:39:50;;;;;;;39.80;24.15;;;8.50;99.90;;;;;;5098570;28;20047;-59
2022/11/14 10:42:25;;;;;;;44.67;25.27;;;;;;;;;;5098683;28;20138;-59
2022/11/14 10:45:01;;;;;;;40.55;24.13;;;;;;;;;;5100173;28;20048;-58
2022/11/14 10:47:29;;;;;;;39.72;23.77;;;;;;;;;;5089988;28;20089;-59
2022/11/14 10:49:59;;;;;;;42.38;26.27;;;8.90;99.90;;;;;;5087618;28;20057;-59
2022/11/14 10:52:35;;;;;;;38.65;23.02;;;;;;;;;;5090352;28;20024;-58
2022/11/14 10:55:07;;;;;;;37.33;22.63;;;;;;;;;;5075026;28;20067;-58
2022/11/14 10:57:33;;;;;;;41.97;24.00;;;;;;;;;;5087295;28;20031;-59
2022/11/14 10:59:58;;;;;;;37.80;23.38;;;9.10;99.90;;;;;;5090257;28;20024;-59
2022/11/14 11:02:24;;;;;;;39.45;23.08;;;;;;;;;;5104011;28;20040;-59
2022/11/14 11:04:50;;;;;;;40.55;23.98;;;;;;;;;;5088610;28;20058;-58
2022/11/14 11:12:53;;;;;;;35.92;21.42;;;9.80;99.90;;;;;;5098969;28;20075;-59
2022/11/14 11:15:19;;;;;;;35.40;22.77;;;;;;;;;;5103455;28;20031;-59
2022/11/14 11:17:53;;;;;;;37.55;21.25;;;;;;;;;;5101334;28;20603;-59
2022/11/14 11:20:25;;;;;;;35.70;21.95;;;;;;;;;;5085184;28;20036;-59
2022/11/14 11:23:21;;;;;;;33.92;21.92;;;;;;;;;;5085726;28;20089;-59
2022/11/14 11:25:46;;;;;;;;;;;;;;;;;;5059337;28;20052;-59
2022/11/14 11:28:17;;;;;;;37.28;21.38;;;;;;;;;;5093274;28;20257;-59
2022/11/14 11:30:59;;;;;;;38.10;21.38;;;;;;;;;;5101353;28;20035;-59
2022/11/14 11:33:46;;;;;;;35.65;21.23;;;;;;;;;;5103456;28;20046;-57
2022/11/14 11:36:16;;;;;;;32.97;21.23;;;9.30;99.90;;;;;;5096389;28;20077;-59
2022/11/14 11:38:43;;;;;;;33.75;20.73;;;;;;;;;;5097145;28;20043;-57
2022/11/14 11:41:30;;;;;;;30.80;20.40;;;;;;;;;;5104616;28;20054;-58
2022/11/14 11:44:01;;;;;;;34.20;21.02;;;10.60;99.90;;;;;;5096217;28;20500;-59
2022/11/14 11:46:44;;;;;;;31.23;19.45;;;;;;;;;;5097151;28;20036;-58
2022/11/14 11:49:29;;;;;;;33.20;20.00;;;11.40;99.90;;;;;;5086944;28;20032;-58
2022/11/14 11:51:56;;;;;;;33.72;20.05;;;;;;;;;;5080653;28;20040;-59
2022/11/14 11:54:26;;;;;;;32.55;19.25;;;;;;;;;;5092727;28;20044;-59
2022/11/14 11:56:56;;;;;;;34.40;21.42;;;;;;;;;;5095932;28;20413;-59
2022/11/14 11:59:36;;;;;;;32.38;21.52;;;11.40;99.90;;;;;;5104837;28;20040;-59
2022/11/14 12:02:11;;;;;;;32.85;20.83;;;;;;;;;;5093512;28;20051;-59
2022/11/14 12:04:37;;;;;;;;;;;;;;;;;;5104472;28;20032;-59
2022/11/14 12:07:07;;;;;;;31.55;20.50;;;;;;;;;;5099174;28;20293;-59
2022/11/14 12:09:37;;;;;;;29.15;19.65;;;;;;;;;;5064223;28;20040;-59
2022/11/14 12:12:06;;;;;;;30.52;19.40;;;;;;;;;;5088146;28;20047;-57
2022/11/14 12:14:50;;;;;;;32.72;20.10;;;12.90;99.90;;;;;;5086265;28;20444;-59
2022/11/14 12:17:34;;;;;;;32.85;21.08;;;;;;;;;;5087151;28;20074;-59
2022/11/14 12:20:19;;;;;;;33.33;19.13;;;;;;;;;;5088688;28;20047;-57
2022/11/14 12:23:02;;;;;;;29.33;19.55;;;;;;;;;;5084824;28;20031;-59
2022/11/14 12:25:34;;;;;;;31.33;19.85;;;16.70;99.90;;;;;;5088401;28;20036;-59
2022/11/14 12:28:19;;;;;;;27.60;18.73;;;;;;;;;;5097319;28;20035;-59
2022/11/14 12:30:52;;;;;;;26.52;18.70;;;;;;;;;;5071302;28;20636;-59
2022/11/14 12:33:27;;;;;;;28.23;19.48;;;;;;;;;;5081356;28;20421;-59
2022/11/14 12:35:55;;;;;;;30.42;18.50;;;;;;;;;;5093093;28;20032;-59
2022/11/14 12:38:22;;;;;;;26.48;18.23;;;;;;;;;;5075168;28;20129;-59
2022/11/14 12:40:52;;;;;;;27.98;18.92;;;;;;;;;;5083891;28;20124;-58
2022/11/14 12:43:38;;;;;;;25.55;18.52;;;23.50;99.90;;;;;;5079729;28;20036;-59
2022/11/14 12:46:08;;;;;;;25.05;18.20;;;;;;;;;;5085937;28;20035;-58
2022/11/14 12:48:52;;;;;;;28.17;19.85;;;24.50;99.90;;;;;;5082898;28;20118;-58
2022/11/14 12:51:27;;;;;;;27.30;18.92;;;;;;;;;;5100565;28;20032;-59
2022/11/14 12:53:54;;;;;;;26.17;18.85;;;25.30;99.90;;;;;;5087140;28;20039;-58
2022/11/14 12:56:29;;;;;;;25.65;19.25;;;25.50;99.90;;;;;;5090158;28;20067;-59
2022/11/14 12:59:04;;;;;;;22.40;17.05;;;26.60;99.90;;;;;;5078922;28;20050;-59
2022/11/14 13:01:30;;;;;;;24.35;17.40;;;26.60;99.90;;;;;;5116534;22;20019;-59
2022/11/14 13:04:02;;;;;;;23.95;18.83;;;26.00;99.90;;;;;;5062716;28;20044;-60
2022/11/14 13:06:44;;;;;;;24.42;17.80;;;25.40;99.90;;;;;;5066086;28;20170;-60
2022/11/14 13:09:28;;;;;;;24.90;18.27;;;25.70;99.90;;;;;;5047456;28;20096;-59
2022/11/14 13:23:25;;;;;;;23.48;19.23;;;26.30;99.90;;;;;;5063910;28;20040;-60
2022/11/14 13:26:08;;;;;;;24.27;18.85;;;26.50;99.90;;;;;;5060247;28;20065;-60
2022/11/14 13:28:37;;;;;;;22.00;17.25;;;27.10;99.90;;;;;;5061441;28;20033;-60
2022/11/14 13:31:15;;;;;;;21.98;18.67;;;27.60;99.90;;;;;;5062508;28;20048;-60
2022/11/14 13:33:48;;;;;;;21.85;17.83;;;27.70;99.90;;;;;;5060287;28;20047;-60
2022/11/14 13:36:39;;;;;;;25.38;19.88;;;27.80;99.90;;;;;;5043671;28;20442;-60
2022/11/14 13:39:10;;;;;;;22.83;18.15;;;27.70;99.90;;;;;;5062381;28;20176;-60
2022/11/14 13:41:58;;;;;;;22.38;17.80;;;25.60;99.90;;;;;;5062645;28;20167;-60
2022/11/14 13:44:30;;;;;;;22.52;18.10;;;24.10;99.90;;;;;;5064069;28;20457;-61
2022/11/14 13:47:22;;;;;;;22.00;17.23;;;24.00;99.90;;;;;;5062235;28;20033;-60
2022/11/14 13:50:07;;;;;;;23.15;17.08;;;22.20;99.90;;;;;;5067243;28;20514;-60
2022/11/14 13:52:39;;;;;;;22.60;18.00;;;21.50;99.90;;;;;;5066235;28;20025;-60
2022/11/14 13:55:05;;;;;;;24.50;19.52;;;21.00;99.90;;;;;;5017077;28;20037;-58
2022/11/14 13:57:46;;;;;;;22.05;17.30;;;20.20;99.90;;;;;;5056172;28;20037;-59
2022/11/14 14:00:17;;;;;;;23.50;17.27;;;20.40;99.90;;;;;;5063102;28;20036;-60
2022/11/14 14:03:27;;;;;;;23.75;18.63;;;19.40;99.90;;;;;;5061783;28;20042;-60
2022/11/14 14:06:13;;;;;;;24.83;17.42;;;18.70;99.90;;;;;;4973798;28;20405;-60